Time;durP1;ratioP1;P1;durP2;ratioP2;P2;SDS_P1;SDS_P2;PMS_P1;PMS_P2;Temp;Humidity;BMP_temperature;BMP_pressure;BME280_temperature;BME280_humidity;BME280_pressure;Samples;Min_cycle;Max_cycle;Signal;HPM_P1;HPM_P2
2021/08/19 00:01:54;;;;;;;4.95;2.03;;;15.80;99.90;;;;;;5098780;28;20410;-68
2021/08/19 00:04:20;;;;;;;3.45;2.22;;;15.80;99.90;;;;;;5099418;28;20059;-68
2021/08/19 00:06:46;;;;;;;6.10;2.17;;;15.80;99.90;;;;;;5099129;28;20400;-68
2021/08/19 00:09:12;;;;;;;2.30;1.35;;;15.80;99.90;;;;;;5098733;28;20039;-68
2021/08/19 00:11:38;;;;;;;3.05;2.15;;;15.80;99.90;;;;;;5098941;28;20028;-67
2021/08/19 00:14:04;;;;;;;3.75;1.90;;;15.80;99.90;;;;;;5098954;28;20027;-68
2021/08/19 00:16:30;;;;;;;3.25;1.98;;;15.80;99.90;;;;;;5098592;28;20483;-68
2021/08/19 00:18:55;;;;;;;4.45;2.30;;;15.80;99.90;;;;;;5098781;28;20031;-68
2021/08/19 00:21:21;;;;;;;2.05;1.73;;;15.70;99.90;;;;;;5098836;28;20285;-68
2021/08/19 00:23:47;;;;;;;3.45;1.67;;;15.80;99.90;;;;;;5098768;28;20020;-68
2021/08/19 00:26:13;;;;;;;2.13;1.88;;;15.80;99.90;;;;;;5098548;28;20028;-68
2021/08/19 00:28:39;;;;;;;3.33;2.28;;;15.80;99.90;;;;;;5098589;28;20028;-68
2021/08/19 00:31:05;;;;;;;6.55;2.55;;;15.80;99.90;;;;;;5098208;28;20020;-68
2021/08/19 00:33:31;;;;;;;9.23;2.97;;;15.70;99.90;;;;;;5098292;28;20024;-68
2021/08/19 00:35:56;;;;;;;5.07;2.40;;;15.70;99.90;;;;;;5098309;28;20028;-68
2021/08/19 00:38:22;;;;;;;7.03;2.75;;;15.70;99.90;;;;;;5098439;28;20027;-68
2021/08/19 00:40:48;;;;;;;4.25;2.03;;;15.70;99.90;;;;;;5098466;28;20036;-68
2021/08/19 00:43:14;;;;;;;4.43;2.35;;;15.60;99.90;;;;;;5098288;28;20024;-68
2021/08/19 00:45:40;;;;;;;5.25;2.42;;;15.60;99.90;;;;;;5097957;28;20065;-68
2021/08/19 00:48:09;;;;;;;4.60;2.15;;;15.60;99.90;;;;;;5098227;28;20027;-68
2021/08/19 00:50:37;;;;;;;3.42;2.10;;;15.60;99.90;;;;;;5098107;28;20432;-68
2021/08/19 00:53:04;;;;;;;2.90;1.88;;;15.60;99.90;;;;;;5098115;28;20494;-68
2021/08/19 00:55:30;;;;;;;5.15;2.15;;;15.60;99.90;;;;;;5097727;28;20424;-68
2021/08/19 00:57:59;;;;;;;4.82;2.08;;;15.60;99.90;;;;;;5097975;28;20545;-68
2021/08/19 01:00:25;;;;;;;3.35;1.85;;;15.50;99.90;;;;;;5097661;28;20028;-68
2021/08/19 01:02:54;;;;;;;3.47;1.98;;;15.60;99.90;;;;;;5097886;28;21170;-68
2021/08/19 01:05:29;;;;;;;3.50;1.95;;;15.60;99.90;;;;;;5098123;28;20081;-68
2021/08/19 01:07:54;;;;;;;4.65;2.03;;;15.60;99.90;;;;;;5097788;28;20092;-68
2021/08/19 01:10:20;;;;;;;4.32;2.03;;;15.60;99.90;;;;;;5097733;28;20020;-68
2021/08/19 01:12:47;;;;;;;3.65;2.25;;;15.60;99.90;;;;;;5098018;28;20415;-68
2021/08/19 01:15:13;;;;;;;5.78;2.60;;;15.60;99.90;;;;;;5097377;28;20043;-68
2021/08/19 01:17:40;;;;;;;3.05;2.50;;;15.60;99.90;;;;;;5097860;28;20030;-68
2021/08/19 01:20:07;;;;;;;2.08;1.70;;;15.60;99.90;;;;;;5097526;28;20063;-68
2021/08/19 01:22:34;;;;;;;3.78;2.45;;;15.60;99.90;;;;;;5097744;28;20031;-67
2021/08/19 01:25:00;;;;;;;6.50;2.50;;;15.60;99.90;;;;;;5097305;28;20052;-68
2021/08/19 01:27:29;;;;;;;4.60;2.47;;;15.60;99.90;;;;;;5097495;28;20016;-67
2021/08/19 01:29:55;;;;;;;2.80;2.35;;;15.50;99.90;;;;;;5097109;28;20028;-68
2021/08/19 01:32:22;;;;;;;3.85;3.13;;;15.50;99.90;;;;;;5097550;28;20563;-68
2021/08/19 01:34:53;;;;;;;5.63;3.58;;;15.50;99.90;;;;;;5084364;28;20032;-68
2021/08/19 01:37:18;;;;;;;3.80;2.58;;;15.40;99.90;;;;;;5097352;28;20098;-68
2021/08/19 01:39:44;;;;;;;9.40;3.25;;;15.50;99.90;;;;;;5097199;28;20066;-68
2021/08/19 01:42:10;;;;;;;6.05;3.15;;;15.40;99.90;;;;;;5097215;28;20020;-68
2021/08/19 01:44:36;;;;;;;8.63;3.78;;;15.50;99.90;;;;;;5097235;28;20653;-68
2021/08/19 01:47:04;;;;;;;3.75;2.97;;;15.40;99.90;;;;;;5096807;28;20396;-68
2021/08/19 01:49:32;;;;;;;6.85;3.20;;;15.30;99.90;;;;;;5097189;28;20399;-68
2021/08/19 01:52:02;;;;;;;5.05;3.15;;;15.30;99.90;;;;;;5097048;28;20008;-68
2021/08/19 01:54:28;;;;;;;3.95;3.13;;;15.20;99.90;;;;;;5096865;28;20040;-68
2021/08/19 01:56:55;;;;;;;6.32;2.60;;;15.20;99.90;;;;;;5096953;28;20020;-68
2021/08/19 01:59:22;;;;;;;5.40;3.08;;;15.10;99.90;;;;;;5097446;28;20024;-68
2021/08/19 02:01:47;;;;;;;2.95;2.55;;;15.10;99.90;;;;;;5096711;28;20023;-66
2021/08/19 02:04:13;;;;;;;8.30;2.90;;;15.10;99.90;;;;;;5097114;28;20062;-66
2021/08/19 02:06:39;;;;;;;4.30;3.00;;;15.00;99.90;;;;;;5096875;28;20020;-68
2021/08/19 02:09:06;;;;;;;8.32;3.72;;;15.00;99.90;;;;;;5096668;28;20396;-68
2021/08/19 02:11:32;;;;;;;4.53;3.17;;;15.00;99.90;;;;;;5096695;28;20012;-68
2021/08/19 02:13:57;;;;;;;8.13;3.33;;;15.00;99.90;;;;;;5097015;28;20111;-68
2021/08/19 02:16:23;;;;;;;5.18;3.28;;;14.90;99.90;;;;;;5095938;28;20358;-68
2021/08/19 02:18:49;;;;;;;4.50;3.05;;;14.90;99.90;;;;;;5096807;28;20036;-68
2021/08/19 02:21:15;;;;;;;5.78;3.05;;;14.90;99.90;;;;;;5096528;28;20024;-68
2021/08/19 02:23:41;;;;;;;4.70;2.72;;;14.90;99.90;;;;;;5096864;28;20096;-68
2021/08/19 02:26:07;;;;;;;3.10;2.75;;;14.80;99.90;;;;;;5096607;28;20024;-68
2021/08/19 02:28:33;;;;;;;5.85;3.10;;;14.90;99.90;;;;;;5096801;28;20553;-68
2021/08/19 02:30:59;;;;;;;5.07;3.08;;;14.80;99.90;;;;;;5096311;28;20020;-68
2021/08/19 02:33:25;;;;;;;5.15;3.40;;;14.80;99.90;;;;;;5096433;28;20077;-68
2021/08/19 02:35:50;;;;;;;7.28;3.60;;;14.80;99.90;;;;;;5096711;28;20024;-68
2021/08/19 02:38:16;;;;;;;3.88;3.17;;;14.80;99.90;;;;;;5096714;28;20035;-68
2021/08/19 02:40:42;;;;;;;6.60;3.78;;;14.80;99.90;;;;;;5096542;28;20519;-68
2021/08/19 02:43:08;;;;;;;5.07;2.85;;;14.80;99.90;;;;;;5096623;28;20032;-68
2021/08/19 02:45:35;;;;;;;4.20;3.15;;;14.70;99.90;;;;;;5096068;28;20392;-68
2021/08/19 02:48:01;;;;;;;5.60;3.35;;;14.70;99.90;;;;;;5096660;28;20032;-68
2021/08/19 02:50:28;;;;;;;3.20;2.90;;;14.70;99.90;;;;;;5096397;28;20396;-68
2021/08/19 02:52:55;;;;;;;4.68;2.60;;;14.80;99.90;;;;;;5096590;28;20023;-68
2021/08/19 02:55:21;;;;;;;2.58;2.38;;;14.80;99.90;;;;;;5096160;28;20127;-68
2021/08/19 02:57:47;;;;;;;2.63;2.42;;;14.90;99.90;;;;;;5096474;28;20055;-68
2021/08/19 03:00:13;;;;;;;4.68;2.28;;;14.90;99.90;;;;;;5096060;28;20028;-68
2021/08/19 03:02:39;;;;;;;3.10;2.15;;;14.80;99.90;;;;;;5096322;28;20388;-68
2021/08/19 03:05:08;;;;;;;2.10;2.00;;;14.80;99.90;;;;;;5096264;28;20032;-69
2021/08/19 03:07:34;;;;;;;4.18;2.58;;;14.90;99.90;;;;;;5096323;28;20016;-68
2021/08/19 03:10:00;;;;;;;3.22;2.50;;;14.80;99.90;;;;;;5096166;28;20020;-68
2021/08/19 03:12:26;;;;;;;1.98;1.88;;;14.80;99.90;;;;;;5096287;28;20027;-68
2021/08/19 03:14:52;;;;;;;2.50;2.00;;;14.80;99.90;;;;;;5095905;28;20020;-68
2021/08/19 03:17:19;;;;;;;2.80;2.20;;;14.80;99.90;;;;;;5096517;28;20097;-68
2021/08/19 03:19:45;;;;;;;2.50;1.65;;;14.80;99.90;;;;;;5096175;28;20020;-68
2021/08/19 03:22:13;;;;;;;2.75;2.42;;;14.80;99.90;;;;;;5096202;28;20028;-68
2021/08/19 03:24:41;;;;;;;2.30;2.10;;;14.80;99.90;;;;;;5095958;28;20062;-68
2021/08/19 03:27:07;;;;;;;2.25;1.65;;;14.80;99.90;;;;;;5098453;28;20020;-68
2021/08/19 03:29:34;;;;;;;2.33;1.90;;;14.80;99.90;;;;;;5099538;28;20436;-68
2021/08/19 03:32:01;;;;;;;3.85;2.22;;;14.80;99.90;;;;;;5099532;28;20031;-68
2021/08/19 03:34:26;;;;;;;2.40;1.73;;;14.70;99.90;;;;;;5099610;28;20024;-68
2021/08/19 03:36:54;;;;;;;2.13;1.92;;;14.70;99.90;;;;;;5099835;28;20017;-68
2021/08/19 03:39:21;;;;;;;2.55;2.28;;;14.80;99.90;;;;;;5099571;28;20390;-68
2021/08/19 03:41:47;;;;;;;2.95;2.53;;;14.70;99.90;;;;;;5099710;28;20020;-68
2021/08/19 03:44:15;;;;;;;2.42;2.22;;;14.70;99.90;;;;;;5099408;28;20026;-68
2021/08/19 03:46:42;;;;;;;3.35;2.40;;;14.70;99.90;;;;;;5099476;28;20043;-68
2021/08/19 03:49:08;;;;;;;4.00;2.38;;;14.70;99.90;;;;;;5099300;28;20031;-68
2021/08/19 03:51:34;;;;;;;4.95;3.30;;;14.70;99.90;;;;;;5099573;28;20012;-68
2021/08/19 03:54:00;;;;;;;5.55;3.30;;;14.70;99.90;;;;;;5098883;28;20036;-68
2021/08/19 03:56:30;;;;;;;3.85;2.08;;;14.70;99.90;;;;;;5098011;28;20429;-68
2021/08/19 03:58:56;;;;;;;2.30;2.10;;;14.80;99.90;;;;;;5099306;28;20028;-68
2021/08/19 04:01:23;;;;;;;2.67;2.20;;;14.70;99.90;;;;;;5098873;28;20585;-67
2021/08/19 04:03:49;;;;;;;2.35;2.15;;;14.70;99.90;;;;;;5099287;28;20032;-68
2021/08/19 04:06:15;;;;;;;1.90;1.50;;;14.70;99.90;;;;;;5099079;28;20069;-68
2021/08/19 04:08:41;;;;;;;2.95;1.83;;;14.70;99.90;;;;;;5098690;28;20497;-68
2021/08/19 04:11:07;;;;;;;2.58;2.38;;;14.70;99.90;;;;;;5099026;28;20425;-68
2021/08/19 04:13:33;;;;;;;2.67;2.15;;;14.70;99.90;;;;;;5098824;28;20028;-68
2021/08/19 04:15:59;;;;;;;3.35;1.90;;;14.70;99.90;;;;;;5098712;28;20054;-68
2021/08/19 04:18:24;;;;;;;2.95;2.05;;;14.70;99.90;;;;;;5098672;28;20028;-68
2021/08/19 04:20:50;;;;;;;4.25;2.15;;;14.80;99.90;;;;;;5098940;28;20020;-68
2021/08/19 04:23:16;;;;;;;2.08;1.77;;;14.80;99.90;;;;;;5098756;28;20032;-68
2021/08/19 04:25:42;;;;;;;2.40;1.73;;;14.70;99.90;;;;;;5098720;28;20028;-68
2021/08/19 04:28:08;;;;;;;3.08;2.45;;;14.70;99.90;;;;;;5098262;28;20105;-68
2021/08/19 04:30:34;;;;;;;4.90;2.33;;;14.70;99.90;;;;;;5098495;28;20036;-68
2021/08/19 04:32:59;;;;;;;3.50;2.67;;;14.70;99.90;;;;;;5098218;28;20048;-68
2021/08/19 04:35:30;;;;;;;2.85;1.98;;;14.80;99.90;;;;;;5098670;28;20095;-68
2021/08/19 04:37:56;;;;;;;4.60;2.67;;;14.70;99.90;;;;;;5097458;28;20039;-68
2021/08/19 04:40:22;;;;;;;5.55;2.60;;;14.80;99.90;;;;;;5098281;28;20026;-68
2021/08/19 04:42:47;;;;;;;3.03;2.00;;;14.70;99.90;;;;;;5098383;28;20095;-69
2021/08/19 04:45:13;;;;;;;2.30;2.10;;;14.80;99.90;;;;;;5098127;28;20031;-68
2021/08/19 04:47:39;;;;;;;5.53;2.10;;;14.80;99.90;;;;;;5098188;28;20464;-68
2021/08/19 04:50:05;;;;;;;3.83;2.53;;;14.80;99.90;;;;;;5098161;28;20123;-68
2021/08/19 04:52:31;;;;;;;3.08;1.67;;;14.80;99.90;;;;;;5098125;28;20016;-68
2021/08/19 04:54:57;;;;;;;2.35;2.15;;;14.80;99.90;;;;;;5097967;28;20523;-68
2021/08/19 04:57:23;;;;;;;2.65;2.35;;;14.80;99.90;;;;;;5097955;28;20031;-68
2021/08/19 04:59:49;;;;;;;4.82;2.05;;;14.80;99.90;;;;;;5098043;28;20024;-68
2021/08/19 05:02:15;;;;;;;2.53;2.00;;;14.80;99.90;;;;;;5098070;28;20373;-68
2021/08/19 05:04:40;;;;;;;2.40;2.00;;;14.80;99.90;;;;;;5098007;28;20030;-68
2021/08/19 05:07:06;;;;;;;2.15;1.95;;;14.80;99.90;;;;;;5097811;28;20568;-68
2021/08/19 05:09:32;;;;;;;2.30;1.98;;;14.80;99.90;;;;;;5097751;28;20096;-68
2021/08/19 05:11:58;;;;;;;1.75;1.65;;;14.80;99.90;;;;;;5097797;28;20043;-68
2021/08/19 05:14:24;;;;;;;2.17;2.08;;;14.80;99.90;;;;;;5097760;28;20028;-68
2021/08/19 05:16:50;;;;;;;2.65;2.00;;;14.80;99.90;;;;;;5097568;28;20016;-68
2021/08/19 05:19:16;;;;;;;3.50;1.85;;;14.90;99.90;;;;;;5097919;28;20484;-68
2021/08/19 05:21:42;;;;;;;4.10;2.25;;;14.80;99.90;;;;;;5097408;28;20023;-68
2021/08/19 05:24:08;;;;;;;3.45;2.78;;;14.80;99.90;;;;;;5097414;28;20032;-68
2021/08/19 05:26:33;;;;;;;2.85;2.55;;;14.80;99.90;;;;;;5097455;28;20387;-68
2021/08/19 05:28:59;;;;;;;4.22;3.00;;;14.80;99.90;;;;;;5097505;28;20028;-68
2021/08/19 05:31:25;;;;;;;4.97;3.22;;;14.80;99.90;;;;;;5096922;28;20444;-68
2021/08/19 05:33:51;;;;;;;5.68;3.28;;;14.80;99.90;;;;;;5097573;28;20030;-68
2021/08/19 05:36:17;;;;;;;6.30;2.95;;;14.80;99.90;;;;;;5097541;28;20034;-68
2021/08/19 05:38:43;;;;;;;5.03;3.17;;;14.80;99.90;;;;;;5097364;28;20046;-68
2021/08/19 05:41:09;;;;;;;8.00;3.63;;;14.80;99.90;;;;;;5097112;28;20020;-68
2021/08/19 05:43:36;;;;;;;3.20;2.90;;;14.70;99.90;;;;;;5097305;28;20465;-69
2021/08/19 05:46:01;;;;;;;6.15;3.08;;;14.70;99.90;;;;;;5096713;28;20573;-68
2021/08/19 05:48:27;;;;;;;8.02;2.72;;;14.70;99.90;;;;;;5097148;28;20433;-68
2021/08/19 05:50:53;;;;;;;4.65;2.85;;;14.80;99.90;;;;;;5096951;28;20042;-68
2021/08/19 05:53:19;;;;;;;3.15;2.80;;;14.80;99.90;;;;;;5097105;28;20497;-68
2021/08/19 05:55:45;;;;;;;3.58;3.13;;;14.80;99.90;;;;;;5096843;28;20093;-68
2021/08/19 05:58:14;;;;;;;3.38;2.97;;;14.80;99.90;;;;;;5097155;28;20059;-68
2021/08/19 06:00:44;;;;;;;5.13;2.70;;;14.90;99.90;;;;;;5096650;28;20032;-68
2021/08/19 06:03:10;;;;;;;5.68;2.40;;;14.80;99.90;;;;;;5096863;28;20028;-68
2021/08/19 06:05:39;;;;;;;4.22;3.00;;;14.80;99.90;;;;;;5097148;28;20028;-68
2021/08/19 06:08:05;;;;;;;4.30;2.65;;;14.80;99.90;;;;;;5096685;28;20020;-68
2021/08/19 06:10:31;;;;;;;2.13;1.92;;;14.80;99.90;;;;;;5097065;28;20423;-68
2021/08/19 06:12:57;;;;;;;4.72;2.50;;;14.90;99.90;;;;;;5096724;28;20028;-68
2021/08/19 06:15:22;;;;;;;2.47;2.20;;;14.90;99.90;;;;;;5096871;28;20032;-68
2021/08/19 06:17:48;;;;;;;2.70;2.42;;;14.90;99.90;;;;;;5096812;28;20446;-68
2021/08/19 06:20:14;;;;;;;3.63;2.90;;;14.90;99.90;;;;;;5096958;28;20074;-68
2021/08/19 06:22:40;;;;;;;4.03;2.33;;;15.00;99.90;;;;;;5096843;28;20831;-68
2021/08/19 06:25:06;;;;;;;5.13;2.95;;;15.10;99.90;;;;;;5096786;28;20024;-68
2021/08/19 06:27:32;;;;;;;3.47;2.67;;;15.10;99.90;;;;;;5096576;28;20380;-68
2021/08/19 06:29:58;;;;;;;3.13;1.85;;;15.10;99.90;;;;;;5096589;28;20024;-68
2021/08/19 06:32:24;;;;;;;5.82;2.53;;;15.10;99.90;;;;;;5096447;28;20089;-68
2021/08/19 06:34:49;;;;;;;2.75;2.17;;;15.20;99.90;;;;;;5096940;28;20012;-68
2021/08/19 06:37:15;;;;;;;5.22;2.25;;;15.50;99.90;;;;;;5096704;28;20472;-68
2021/08/19 06:39:41;;;;;;;3.38;2.13;;;;;;;;;;5096790;28;20168;-68
2021/08/19 06:42:07;;;;;;;4.95;1.83;;;16.00;99.90;;;;;;5096494;28;20024;-68
2021/08/19 06:44:33;;;;;;;1.95;1.85;;;16.30;99.90;;;;;;5096618;28;20480;-69
2021/08/19 06:46:59;;;;;;;6.38;2.88;;;16.60;99.90;;;;;;5096416;28;20028;-67
2021/08/19 06:49:25;;;;;;;2.58;2.15;;;17.00;99.90;;;;;;5096477;28;20078;-67
2021/08/19 06:51:51;;;;;;;3.00;1.55;;;17.10;99.90;;;;;;5096436;28;20021;-66
2021/08/19 06:54:17;;;;;;;2.00;1.65;;;17.40;99.90;;;;;;5096477;28;20116;-66
2021/08/19 06:56:42;;;;;;;2.15;1.77;;;17.40;99.90;;;;;;5096449;28;20024;-67
2021/08/19 06:59:08;;;;;;;3.38;1.90;;;17.60;99.90;;;;;;5096528;28;20035;-67
2021/08/19 07:01:34;;;;;;;3.13;2.05;;;17.70;99.90;;;;;;5097515;28;20017;-66
2021/08/19 07:04:00;;;;;;;3.25;1.80;;;;;;;;;;5100407;28;20028;-67
2021/08/19 07:06:26;;;;;;;3.05;1.42;;;17.90;99.90;;;;;;5100286;28;20498;-66
2021/08/19 07:08:52;;;;;;;1.48;1.25;;;18.10;99.90;;;;;;5100148;28;20039;-67
2021/08/19 07:11:17;;;;;;;1.88;1.58;;;18.40;99.90;;;;;;5100325;28;20016;-58
2021/08/19 07:13:43;;;;;;;1.60;1.50;;;18.60;99.90;;;;;;5100167;28;20447;-57
2021/08/19 07:16:09;;;;;;;5.18;2.17;;;18.80;99.90;;;;;;5089937;28;20036;-58
2021/08/19 07:18:35;;;;;;;3.95;1.80;;;19.00;99.90;;;;;;5100106;28;20032;-58
2021/08/19 07:21:01;;;;;;;2.15;1.52;;;19.00;99.90;;;;;;5106467;28;20368;-57
2021/08/19 07:23:27;;;;;;;2.45;1.65;;;19.00;99.90;;;;;;5099271;28;20024;-58
2021/08/19 07:25:53;;;;;;;1.70;1.45;;;19.00;99.90;;;;;;5099833;28;20020;-58
2021/08/19 07:28:20;;;;;;;2.58;1.67;;;19.00;99.90;;;;;;5099772;28;20024;-58
2021/08/19 07:30:45;;;;;;;2.55;2.05;;;18.90;99.90;;;;;;5099345;28;20032;-58
2021/08/19 07:33:12;;;;;;;1.45;1.35;;;18.90;99.90;;;;;;5105979;28;20395;-58
2021/08/19 07:35:38;;;;;;;1.40;1.30;;;18.80;99.90;;;;;;5106363;28;20107;-58
2021/08/19 07:38:04;;;;;;;3.85;1.70;;;18.70;99.90;;;;;;5099313;28;20055;-58
2021/08/19 07:40:33;;;;;;;3.58;1.83;;;18.70;99.90;;;;;;5099500;28;20044;-57
2021/08/19 07:42:59;;;;;;;2.67;1.52;;;18.80;99.90;;;;;;5099479;28;20027;-58
2021/08/19 07:45:26;;;;;;;1.60;1.50;;;18.70;99.90;;;;;;5097970;28;20527;-58
2021/08/19 07:47:52;;;;;;;3.78;1.85;;;19.00;99.90;;;;;;5098613;28;20195;-58
2021/08/19 07:50:19;;;;;;;2.50;1.23;;;19.60;99.90;;;;;;5099649;28;20109;-57
2021/08/19 07:52:45;;;;;;;1.60;1.20;;;19.70;99.90;;;;;;5099433;28;20020;-57
2021/08/19 07:55:12;;;;;;;3.72;1.52;;;20.00;99.90;;;;;;5098905;28;20048;-58
2021/08/19 07:57:47;;;;;;;3.55;2.35;;;20.40;99.90;;;;;;5099512;28;20032;-58
2021/08/19 08:00:17;;;;;;;1.95;1.77;;;20.70;99.90;;;;;;5099015;28;20036;-58
2021/08/19 08:02:43;;;;;;;2.10;1.77;;;20.70;99.90;;;;;;5099323;28;20028;-58
2021/08/19 08:05:09;;;;;;;3.42;1.45;;;21.00;99.90;;;;;;5099019;28;20023;-58
2021/08/19 08:07:35;;;;;;;1.88;1.65;;;21.10;99.90;;;;;;5099099;28;20148;-58
2021/08/19 08:10:03;;;;;;;1.77;1.58;;;21.30;99.90;;;;;;5099030;28;20053;-67
2021/08/19 08:12:29;;;;;;;4.05;1.70;;;;;;;;;;5098018;28;20070;-66
2021/08/19 08:14:55;;;;;;;2.00;1.05;;;21.70;99.90;;;;;;5098320;28;20073;-67
2021/08/19 08:17:21;;;;;;;2.08;1.55;;;22.00;99.90;;;;;;5099076;28;20056;-66
2021/08/19 08:19:48;;;;;;;4.43;1.70;;;21.90;99.90;;;;;;5099027;28;20027;-66
2021/08/19 08:22:14;;;;;;;1.83;1.30;;;21.70;99.90;;;;;;5098803;28;20057;-66
2021/08/19 08:24:40;;;;;;;2.78;1.50;;;21.30;99.90;;;;;;5098645;28;20028;-67
2021/08/19 08:27:06;;;;;;;1.90;1.10;;;21.20;99.90;;;;;;5098731;28;20042;-66
2021/08/19 08:29:32;;;;;;;2.30;1.55;;;21.20;99.90;;;;;;5098291;28;20503;-66
2021/08/19 08:32:04;;;;;;;3.10;1.60;;;21.10;99.90;;;;;;5098676;28;20020;-66
2021/08/19 08:34:31;;;;;;;1.17;1.08;;;21.10;99.90;;;;;;5098509;28;20023;-66
2021/08/19 08:36:57;;;;;;;2.05;1.33;;;21.20;99.90;;;;;;5098756;28;20056;-66
2021/08/19 08:39:25;;;;;;;2.00;1.23;;;21.00;99.90;;;;;;5098268;28;20024;-66
2021/08/19 08:41:52;;;;;;;2.08;1.58;;;21.10;99.90;;;;;;5098427;28;20028;-66
2021/08/19 08:44:20;;;;;;;2.35;1.75;;;21.20;99.90;;;;;;5098444;28;20020;-66
2021/08/19 08:46:47;;;;;;;3.50;1.27;;;21.30;99.90;;;;;;5098230;28;20061;-66
2021/08/19 08:49:14;;;;;;;3.70;1.20;;;21.40;99.90;;;;;;5098056;28;20523;-67
2021/08/19 08:51:48;;;;;;;1.77;1.13;;;21.40;99.90;;;;;;5098280;28;20043;-66
2021/08/19 08:54:14;;;;;;;1.98;1.13;;;21.20;99.90;;;;;;5098069;28;20036;-66
2021/08/19 08:56:40;;;;;;;1.27;1.10;;;21.20;99.90;;;;;;5098326;28;20088;-66
2021/08/19 08:59:06;;;;;;;4.20;1.42;;;21.20;99.90;;;;;;5098308;28;20024;-66
2021/08/19 09:01:31;;;;;;;1.45;1.15;;;21.20;99.90;;;;;;5097791;28;20028;-66
2021/08/19 09:03:57;;;;;;;1.88;1.08;;;21.20;99.90;;;;;;5097921;28;20099;-66
2021/08/19 09:06:39;;;;;;;2.28;1.20;;;21.20;99.90;;;;;;5098075;28;20388;-66
2021/08/19 09:09:21;;;;;;;3.10;1.15;;;21.30;99.90;;;;;;5097805;28;20107;-66
2021/08/19 09:12:01;;;;;;;2.22;1.02;;;21.70;99.90;;;;;;5098129;28;20032;-66
2021/08/19 09:14:30;;;;;;;3.35;1.00;;;22.30;99.90;;;;;;5097422;28;20020;-66
2021/08/19 09:16:56;;;;;;;3.05;1.80;;;22.60;99.90;;;;;;5097658;28;20024;-66
2021/08/19 09:19:23;;;;;;;2.20;1.10;;;22.60;99.90;;;;;;5097831;28;20066;-66
2021/08/19 09:21:57;;;;;;;3.30;1.27;;;22.70;99.90;;;;;;5097926;28;20039;-66
2021/08/19 09:24:25;;;;;;;1.88;1.10;;;22.70;99.90;;;;;;5097196;28;20069;-66
2021/08/19 09:26:52;;;;;;;3.78;1.30;;;22.40;99.90;;;;;;5097690;28;20434;-62
2021/08/19 09:29:30;;;;;;;3.25;1.10;;;22.30;99.90;;;;;;5097691;28;20073;-58
2021/08/19 09:32:15;;;;;;;4.32;1.35;;;22.60;99.90;;;;;;5097532;28;20081;-58
2021/08/19 09:34:44;;;;;;;0.90;0.90;;;22.50;99.90;;;;;;5097456;28;20539;-58
2021/08/19 09:37:12;;;;;;;1.20;1.10;;;23.10;99.90;;;;;;5097422;28;20090;-58
2021/08/19 09:39:43;;;;;;;1.95;0.80;;;23.30;99.90;;;;;;5097154;28;20089;-59
2021/08/19 09:42:11;;;;;;;2.25;1.20;;;23.50;99.90;;;;;;5097294;28;20103;-59
2021/08/19 09:44:42;;;;;;;1.23;0.90;;;23.90;99.90;;;;;;5097062;28;20032;-58
2021/08/19 09:47:36;;;;;;;0.90;0.90;;;24.30;99.90;;;;;;5097163;28;20123;-58
2021/08/19 09:50:12;;;;;;;1.10;0.70;;;24.50;99.90;;;;;;5097164;28;20034;-58
2021/08/19 09:52:38;;;;;;;1.73;0.82;;;24.70;99.90;;;;;;5096939;28;20059;-58
2021/08/19 09:55:25;;;;;;;0.75;0.73;;;24.60;99.90;;;;;;5096887;28;20171;-58
2021/08/19 09:57:55;;;;;;;1.70;0.60;;;24.60;99.90;;;;;;5097292;28;20484;-58
2021/08/19 10:00:25;;;;;;;0.80;0.68;;;24.70;99.90;;;;;;5096912;28;20043;-58
2021/08/19 10:02:51;;;;;;;3.17;0.60;;;25.50;99.50;;;;;;5097061;28;20024;-58
2021/08/19 10:05:18;;;;;;;1.55;0.85;;;25.60;99.90;;;;;;5097073;28;20460;-58
2021/08/19 10:07:44;;;;;;;0.80;0.70;;;25.70;99.90;;;;;;5096959;28;20035;-58
2021/08/19 10:10:10;;;;;;;2.22;1.10;;;25.50;99.80;;;;;;5096702;28;20028;-58
2021/08/19 10:12:45;;;;;;;4.25;1.10;;;25.20;98.80;;;;;;5096914;28;20047;-59
2021/08/19 10:15:13;;;;;;;2.08;0.60;;;24.70;98.80;;;;;;5096551;28;20103;-58
2021/08/19 10:17:45;;;;;;;1.88;0.85;;;24.20;99.50;;;;;;5096775;28;20043;-58
2021/08/19 10:20:14;;;;;;;0.68;0.60;;;24.20;99.90;;;;;;5096786;28;20028;-58
2021/08/19 10:22:41;;;;;;;0.73;0.63;;;24.10;99.90;;;;;;5093208;28;20372;-59
2021/08/19 10:25:08;;;;;;;0.93;0.70;;;24.20;99.90;;;;;;5096300;28;20476;-58
2021/08/19 10:27:34;;;;;;;0.75;0.75;;;24.40;99.90;;;;;;5106287;28;20876;-58
2021/08/19 10:30:05;;;;;;;1.17;0.50;;;24.90;99.90;;;;;;5096072;28;20024;-58
2021/08/19 10:32:37;;;;;;;1.85;0.90;;;25.50;99.90;;;;;;5096313;28;20013;-58
2021/08/19 10:35:10;;;;;;;2.90;2.15;;;25.80;99.90;;;;;;5096712;28;20450;-58
2021/08/19 10:37:45;;;;;;;2.05;1.65;;;26.00;99.50;;;;;;5099975;28;20020;-59
2021/08/19 10:40:23;;;;;;;0.82;0.63;;;26.30;99.30;;;;;;5103814;28;20085;-59
2021/08/19 10:43:19;;;;;;;0.55;0.50;;;26.20;97.60;;;;;;5100205;28;20028;-58
2021/08/19 10:45:45;;;;;;;2.05;0.70;;;25.80;97.60;;;;;;5100389;28;20442;-58
2021/08/19 10:48:11;;;;;;;1.55;0.75;;;24.90;97.70;;;;;;5100720;28;20067;-58
2021/08/19 10:50:41;;;;;;;1.63;0.70;;;24.40;98.60;;;;;;5098518;28;20036;-58
2021/08/19 10:53:21;;;;;;;1.92;0.60;;;24.40;99.50;;;;;;5099933;28;20502;-59
2021/08/19 10:55:52;;;;;;;0.50;0.50;;;24.50;98.80;;;;;;5100380;28;20055;-60
2021/08/19 10:58:27;;;;;;;0.50;0.47;;;24.50;99.30;;;;;;5100180;28;20023;-58
2021/08/19 11:01:00;;;;;;;2.42;0.80;;;24.60;99.40;;;;;;5100331;28;20057;-59
2021/08/19 11:03:38;;;;;;;1.65;0.98;;;24.70;99.10;;;;;;5100372;28;20053;-58
2021/08/19 11:06:07;;;;;;;0.60;0.60;;;24.50;99.40;;;;;;5099927;28;20035;-58
2021/08/19 11:08:46;;;;;;;1.25;0.60;;;24.40;98.90;;;;;;5099990;28;20099;-59
2021/08/19 11:11:25;;;;;;;0.60;0.60;;;24.10;99.40;;;;;;5099752;28;20369;-59
2021/08/19 11:14:19;;;;;;;0.50;0.50;;;24.00;99.90;;;;;;5087231;28;20026;-58
2021/08/19 11:16:55;;;;;;;0.70;0.70;;;23.50;99.90;;;;;;5109585;28;20488;-59
2021/08/19 11:19:23;;;;;;;1.00;0.60;;;23.30;99.90;;;;;;5099605;28;20028;-58
2021/08/19 11:22:09;;;;;;;2.58;0.88;;;23.30;99.90;;;;;;5098043;28;20028;-58
2021/08/19 11:24:37;;;;;;;2.92;0.68;;;23.60;99.90;;;;;;5099642;28;20085;-58
2021/08/19 11:27:09;;;;;;;1.48;0.82;;;23.80;99.90;;;;;;5099928;28;20396;-58
2021/08/19 11:29:39;;;;;;;2.45;0.63;;;23.80;99.90;;;;;;5099533;28;20099;-58
2021/08/19 11:32:14;;;;;;;0.77;0.60;;;23.80;99.70;;;;;;5099613;28;20084;-58
2021/08/19 11:34:49;;;;;;;0.50;0.50;;;23.90;99.90;;;;;;5099898;28;20469;-65
2021/08/19 11:37:33;;;;;;;1.48;0.73;;;24.20;99.90;;;;;;5099903;28;20039;-65
2021/08/19 11:40:00;;;;;;;0.70;0.70;;;24.60;99.90;;;;;;5099529;28;20028;-66
2021/08/19 11:42:31;;;;;;;0.65;0.52;;;25.00;99.90;;;;;;5099548;28;20541;-66
2021/08/19 11:45:23;;;;;;;0.32;0.32;;;25.00;98.70;;;;;;5099475;28;20021;-65
2021/08/19 11:47:52;;;;;;;0.38;0.38;;;24.90;99.80;;;;;;5099452;28;20028;-66
2021/08/19 11:50:23;;;;;;;0.40;0.40;;;25.10;99.90;;;;;;5099606;28;20027;-66
2021/08/19 11:52:49;;;;;;;0.80;0.43;;;25.20;99.90;;;;;;5099678;28;20056;-66
2021/08/19 11:55:30;;;;;;;0.63;0.55;;;25.60;99.30;;;;;;5099288;28;20059;-66
2021/08/19 11:58:24;;;;;;;0.93;0.50;;;25.70;99.80;;;;;;5099411;28;20482;-66
2021/08/19 12:01:10;;;;;;;1.00;0.50;;;25.80;99.10;;;;;;5099118;28;20050;-66
2021/08/19 12:03:39;;;;;;;2.92;0.50;;;25.40;99.00;;;;;;5099106;28;20089;-66
2021/08/19 12:06:10;;;;;;;1.27;0.55;;;25.00;99.50;;;;;;5099070;28;20029;-65
2021/08/19 12:08:38;;;;;;;0.57;0.50;;;24.50;99.90;;;;;;5098899;28;20028;-66
2021/08/19 12:11:07;;;;;;;0.40;0.40;;;24.00;99.90;;;;;;5099128;28;20035;-66
2021/08/19 12:13:36;;;;;;;0.63;0.60;;;23.50;99.90;;;;;;5098858;28;20032;-65
2021/08/19 12:16:02;;;;;;;1.20;0.50;;;23.50;99.90;;;;;;5098732;28;20026;-66
2021/08/19 12:18:28;;;;;;;0.85;0.60;;;23.20;99.90;;;;;;5098823;28;20024;-65
2021/08/19 12:21:27;;;;;;;6.28;0.90;;;;;;;;;;5098873;28;20027;-66
2021/08/19 12:24:19;;;;;;;1.65;0.50;;;22.80;99.90;;;;;;5065338;28;20489;-66
2021/08/19 12:27:06;;;;;;;2.10;0.60;;;22.90;99.90;;;;;;5085976;28;20451;-66
2021/08/19 12:29:45;;;;;;;1.40;0.75;;;23.20;99.90;;;;;;5098422;28;20030;-65
2021/08/19 12:32:31;;;;;;;1.77;0.65;;;23.40;99.90;;;;;;5098618;28;20020;-66
2021/08/19 12:35:22;;;;;;;0.93;0.60;;;23.60;99.90;;;;;;5086515;28;20024;-66
2021/08/19 12:37:56;;;;;;;3.45;0.60;;;24.20;99.90;;;;;;5098570;28;20027;-66
2021/08/19 12:40:30;;;;;;;1.25;0.57;;;24.90;99.90;;;;;;5098439;28;20385;-66
2021/08/19 12:43:10;;;;;;;0.70;0.50;;;26.00;99.90;;;;;;5098397;28;20024;-65
2021/08/19 12:45:37;;;;;;;0.70;0.70;;;26.20;98.50;;;;;;5097965;28;20099;-66
2021/08/19 12:48:06;;;;;;;1.05;0.65;;;25.80;99.60;;;;;;5098409;28;20492;-65
2021/08/19 12:50:32;;;;;;;0.80;0.50;;;25.10;99.70;;;;;;5098216;28;20470;-66
2021/08/19 12:53:08;;;;;;;1.00;0.60;;;24.60;99.90;;;;;;5098338;28;20047;-66
2021/08/19 12:55:34;;;;;;;0.93;0.43;;;24.20;99.90;;;;;;5097883;28;20052;-66